Time;durP1;ratioP1;P1;durP2;ratioP2;P2;SDS_P1;SDS_P2;PMS_P1;PMS_P2;Temp;Humidity;BMP_temperature;BMP_pressure;BME280_temperature;BME280_humidity;BME280_pressure;Samples;Min_cycle;Max_cycle;Signal;HPM_P1;HPM_P2
2022/03/12 00:00:07;;;;;;;40.08;24.38;;;;;;;;;;5055498;28;20025;-77
2022/03/12 00:02:34;;;;;;;37.38;23.02;;;;;;;;;;5055637;28;20039;-77
2022/03/12 00:05:06;;;;;;;47.13;27.42;;;;;;;;;;5055437;28;20029;-77
2022/03/12 00:07:32;;;;;;;29.42;19.33;;;;;;;;;;5055649;28;20088;-77
2022/03/12 00:09:58;;;;;;;29.80;20.38;;;;;;;;;;5055618;28;20079;-77
2022/03/12 00:12:25;;;;;;;22.65;15.95;;;;;;;;;;5055334;28;20029;-78
2022/03/12 00:14:51;;;;;;;23.05;16.50;;;;;;;;;;5060045;28;20047;-77
2022/03/12 00:17:18;;;;;;;25.60;16.98;;;;;;;;;;5057550;28;20021;-77
2022/03/12 00:19:44;;;;;;;31.75;20.27;;;;;;;;;;5055095;28;20076;-77
2022/03/12 00:22:12;;;;;;;30.20;19.25;;;;;;;;;;5055314;28;20116;-77
2022/03/12 00:24:40;;;;;;;34.17;20.73;;;;;;;;;;5055312;28;20037;-77
2022/03/12 00:27:10;;;;;;;39.47;22.88;;;;;;;;;;5054995;28;20029;-77
2022/03/12 00:29:36;;;;;;;35.40;23.08;;;;;;;;;;5055206;28;20040;-77
2022/03/12 00:32:04;;;;;;;35.83;22.55;;;;;;;;;;5055105;28;20040;-77
2022/03/12 00:34:31;;;;;;;31.52;20.90;;;;;;;;;;5054985;28;20033;-77
2022/03/12 00:36:57;;;;;;;34.17;22.70;;;;;;;;;;5054941;28;20036;-77
2022/03/12 00:39:23;;;;;;;34.63;21.38;;;;;;;;;;5054868;28;20024;-77
2022/03/12 00:41:50;;;;;;;33.45;21.98;;;;;;;;;;5053608;28;20032;-77
2022/03/12 00:44:20;;;;;;;31.33;20.77;;;;;;;;;;5055068;28;20037;-77
2022/03/12 00:46:46;;;;;;;29.85;19.05;;;;;;;;;;5052892;28;20036;-77
2022/03/12 00:49:13;;;;;;;30.80;20.35;;;;;;;;;;5054477;28;20062;-77
2022/03/12 00:51:39;;;;;;;33.85;19.42;;;;;;;;;;5054360;28;20043;-77
2022/03/12 00:54:05;;;;;;;32.08;19.95;;;;;;;;;;5054599;28;20033;-77
2022/03/12 00:56:32;;;;;;;32.10;19.92;;;;;;;;;;5053202;28;20025;-77
2022/03/12 00:58:59;;;;;;;31.50;20.23;;;;;;;;;;5054694;28;20382;-77
2022/03/12 01:01:28;;;;;;;39.42;23.50;;;;;;;;;;5054129;28;20025;-77
2022/03/12 01:03:54;;;;;;;32.65;20.70;;;;;;;;;;5054613;28;20029;-77
2022/03/12 01:06:21;;;;;;;28.85;18.65;;;;;;;;;;5054476;28;20025;-77
2022/03/12 01:08:48;;;;;;;23.92;15.85;;;;;;;;;;5054325;28;20021;-77
2022/03/12 01:11:14;;;;;;;22.13;15.57;;;;;;;;;;5054534;28;20025;-78
2022/03/12 01:13:40;;;;;;;19.08;13.07;;;;;;;;;;5054365;28;20025;-77
2022/03/12 01:16:07;;;;;;;21.45;14.73;;;;;;;;;;5054498;28;20036;-77
2022/03/12 01:18:36;;;;;;;19.67;13.73;;;;;;;;;;5054131;28;20033;-77
2022/03/12 01:21:16;;;;;;;22.35;13.95;;;;;;;;;;5054124;28;20029;-77
2022/03/12 01:23:42;;;;;;;19.77;13.02;;;;;;;;;;5054501;28;20033;-77
2022/03/12 01:26:10;;;;;;;18.10;13.65;;;;;;;;;;5057394;28;20036;-77
2022/03/12 01:28:36;;;;;;;20.38;12.57;;;;;;;;;;5054228;28;20368;-77
2022/03/12 01:31:03;;;;;;;15.90;12.45;;;;;;;;;;5054006;28;20029;-77
2022/03/12 01:33:29;;;;;;;17.90;13.70;;;;;;;;;;5053781;28;20037;-77
2022/03/12 01:35:55;;;;;;;23.52;13.02;;;;;;;;;;5053838;28;20063;-77
2022/03/12 01:38:28;;;;;;;16.95;12.48;;;;;;;;;;5054001;28;20028;-77
2022/03/12 01:40:54;;;;;;;19.17;12.15;;;;;;;;;;5052805;28;20033;-77
2022/03/12 01:43:21;;;;;;;19.00;12.32;;;;;;;;;;5053641;28;20071;-77
2022/03/12 01:45:47;;;;;;;38.83;14.35;;;;;;;;;;5052495;28;20358;-77
2022/03/12 01:48:13;;;;;;;19.45;13.15;;;;;;;;;;5053754;28;20028;-77
2022/03/12 01:50:40;;;;;;;16.50;11.65;;;;;;;;;;5053649;28;20033;-77
2022/03/12 01:53:25;;;;;;;19.88;12.95;;;;;;;;;;5053560;28;20407;-77
2022/03/12 01:55:51;;;;;;;26.10;15.68;;;;;;;;;;5053576;28;20070;-77
2022/03/12 01:58:17;;;;;;;20.02;14.05;;;;;;;;;;5052617;28;20395;-77
2022/03/12 02:00:46;;;;;;;21.30;13.90;;;;;;;;;;5053644;28;20021;-77
2022/03/12 02:03:13;;;;;;;19.77;11.55;;;;;;;;;;5053457;28;20032;-77
2022/03/12 02:05:39;;;;;;;16.30;11.07;;;;;;;;;;5053361;28;20024;-77
2022/03/12 02:08:06;;;;;;;16.55;11.60;;;;;;;;;;5052287;28;20075;-78
2022/03/12 02:10:34;;;;;;;18.52;12.98;;;;;;;;;;5053356;28;20020;-77
2022/03/12 02:13:00;;;;;;;17.90;12.32;;;;;;;;;;5053241;28;20083;-77
2022/03/12 02:15:27;;;;;;;18.20;12.02;;;;;;;;;;5053380;28;20029;-77
2022/03/12 02:17:54;;;;;;;21.52;13.13;;;;;;;;;;5053410;28;20044;-77
2022/03/12 02:20:21;;;;;;;15.00;11.00;;;;;;;;;;5053351;28;20040;-77
2022/03/12 02:22:51;;;;;;;17.90;11.43;;;;;;;;;;5053466;28;20021;-77
2022/03/12 02:25:17;;;;;;;17.02;11.63;;;;;;;;;;5053066;28;20090;-78
2022/03/12 02:27:43;;;;;;;19.88;12.77;;;;;;;;;;5053364;28;20384;-77
2022/03/12 02:30:10;;;;;;;17.45;11.50;;;;;;;;;;5053411;28;20040;-77
2022/03/12 02:32:37;;;;;;;20.05;12.60;;;;;;;;;;5053695;28;20025;-77
2022/03/12 02:35:08;;;;;;;19.83;13.25;;;;;;;;;;5053151;28;20052;-77
2022/03/12 02:37:34;;;;;;;18.40;12.15;;;;;;;;;;5060771;28;20028;-77
2022/03/12 02:40:03;;;;;;;19.42;13.07;;;;;;;;;;5053170;28;20356;-77
2022/03/12 02:42:29;;;;;;;17.30;13.50;;;;;;;;;;5053043;28;20037;-77
2022/03/12 02:44:58;;;;;;;20.98;12.95;;;;;;;;;;5052907;28;20179;-77
2022/03/12 02:47:27;;;;;;;20.17;12.80;;;;;;;;;;5051632;28;20135;-77
2022/03/12 02:49:56;;;;;;;17.88;12.10;;;;;;;;;;5053053;28;20063;-77
2022/03/12 02:52:23;;;;;;;16.65;11.50;;;;;;;;;;5052714;28;20088;-77
2022/03/12 02:54:50;;;;;;;19.42;13.85;;;;;;;;;;5053045;28;20029;-77
2022/03/12 02:57:17;;;;;;;19.17;13.45;;;;;;;;;;5052849;28;20079;-77
2022/03/12 02:59:44;;;;;;;19.15;13.23;;;;;;;;;;5053152;28;20574;-77
2022/03/12 03:02:11;;;;;;;21.88;12.27;;;;;;;;;;5052728;28;20059;-77
2022/03/12 03:04:40;;;;;;;20.10;13.10;;;;;;;;;;5053006;28;20090;-77
2022/03/12 03:07:10;;;;;;;22.48;14.25;;;;;;;;;;5052805;28;20021;-77
2022/03/12 03:09:37;;;;;;;18.75;12.45;;;;;;;;;;5054468;28;20029;-77
2022/03/12 03:12:06;;;;;;;21.15;13.50;;;;;;;;;;5056792;28;20032;-77
2022/03/12 03:14:32;;;;;;;17.35;11.52;;;;;;;;;;5056543;28;20029;-76
2022/03/12 03:16:59;;;;;;;19.58;13.00;;;;;;;;;;5056476;28;20033;-76
2022/03/12 03:19:26;;;;;;;20.75;13.05;;;;;;;;;;5056401;28;20025;-76
2022/03/12 03:21:57;;;;;;;21.15;13.57;;;;;;;;;;5056448;28;20032;-77
2022/03/12 03:24:24;;;;;;;22.15;13.70;;;;;;;;;;5056204;28;20383;-76
2022/03/12 03:26:51;;;;;;;17.48;12.10;;;;;;;;;;5056332;28;20084;-76
2022/03/12 03:29:19;;;;;;;18.67;12.18;;;;;;;;;;5056510;28;20024;-76
2022/03/12 03:31:46;;;;;;;18.58;12.77;;;;;;;;;;5056115;28;20036;-76
2022/03/12 03:34:12;;;;;;;20.45;12.50;;;;;;;;;;5056320;28;20033;-76
2022/03/12 03:36:39;;;;;;;17.92;12.50;;;;;;;;;;5056196;28;20036;-77
2022/03/12 03:39:05;;;;;;;21.58;11.57;;;;;;;;;;5056107;28;20025;-77
2022/03/12 03:41:33;;;;;;;15.85;11.35;;;;;;;;;;5055943;28;20025;-77
2022/03/12 03:44:00;;;;;;;16.75;11.13;;;;;;;;;;5055819;28;20029;-77
2022/03/12 03:46:26;;;;;;;15.65;11.57;;;;;;;;;;5055920;28;20499;-78
2022/03/12 03:48:53;;;;;;;18.75;11.98;;;;;;;;;;5059112;28;20028;-76
2022/03/12 03:51:20;;;;;;;18.30;12.18;;;;;;;;;;5055669;28;20060;-77
2022/03/12 03:53:46;;;;;;;16.83;11.23;;;;;;;;;;5054515;28;20041;-77
2022/03/12 03:56:12;;;;;;;17.60;10.73;;;;;;;;;;5055664;28;20025;-77
2022/03/12 03:58:38;;;;;;;16.48;11.45;;;;;;;;;;5055812;28;20070;-77
2022/03/12 04:01:10;;;;;;;15.00;11.13;;;;;;;;;;5055586;28;20131;-78
2022/03/12 04:03:37;;;;;;;17.02;11.20;;;;;;;;;;5055979;28;20442;-77
2022/03/12 04:06:05;;;;;;;15.88;9.95;;;;;;;;;;5055779;28;20383;-77
2022/03/12 04:08:32;;;;;;;17.58;10.93;;;;;;;;;;5055609;28;20067;-77
2022/03/12 04:11:01;;;;;;;16.23;10.63;;;;;;;;;;5055441;28;20543;-78
2022/03/12 04:13:27;;;;;;;17.90;12.20;;;;;;;;;;5055497;28;20025;-79
2022/03/12 04:15:54;;;;;;;17.90;11.82;;;;;;;;;;5055413;28;20091;-78
2022/03/12 04:18:21;;;;;;;18.27;11.82;;;;;;;;;;5054079;28;20029;-76
2022/03/12 04:20:48;;;;;;;17.83;11.70;;;;;;;;;;5054539;28;20033;-77
2022/03/12 04:23:21;;;;;;;18.20;11.52;;;;;;;;;;5055554;28;20036;-77
2022/03/12 04:25:51;;;;;;;15.98;10.35;;;;;;;;;;5055232;28;20124;-76
2022/03/12 04:28:17;;;;;;;15.15;9.95;;;;;;;;;;5055158;28;20416;-77
2022/03/12 04:30:44;;;;;;;17.08;10.13;;;;;;;;;;5055010;28;20107;-77
2022/03/12 04:33:11;;;;;;;17.90;12.25;;;;;;;;;;5055150;28;20039;-77
2022/03/12 04:35:38;;;;;;;17.83;11.73;;;;;;;;;;5055483;28;20036;-77
2022/03/12 04:38:04;;;;;;;17.25;12.27;;;;;;;;;;5055025;28;20033;-77
2022/03/12 04:40:30;;;;;;;17.23;11.55;;;;;;;;;;5055066;28;20036;-77
2022/03/12 04:42:57;;;;;;;16.88;11.35;;;;;;;;;;5055001;28;20385;-77
2022/03/12 04:45:25;;;;;;;20.73;12.75;;;;;;;;;;5054735;28;20477;-77
2022/03/12 04:47:51;;;;;;;16.60;12.02;;;;;;;;;;5053495;28;20112;-76
2022/03/12 04:50:19;;;;;;;19.73;12.88;;;;;;;;;;5054954;28;20029;-77
2022/03/12 04:52:46;;;;;;;17.75;12.07;;;;;;;;;;5054690;28;20123;-77
2022/03/12 04:55:13;;;;;;;18.05;11.60;;;;;;;;;;5054864;28;20024;-77
2022/03/12 04:57:40;;;;;;;18.10;11.55;;;;;;;;;;5054553;28;20086;-76
2022/03/12 05:00:07;;;;;;;19.08;12.20;;;;;;;;;;5054465;28;20028;-77
2022/03/12 05:02:33;;;;;;;18.83;13.02;;;;;;;;;;5054487;28;20072;-77
2022/03/12 05:05:00;;;;;;;20.92;13.75;;;;;;;;;;5054415;28;20029;-77
2022/03/12 05:07:26;;;;;;;21.17;13.30;;;;;;;;;;5054403;28;20083;-78
2022/03/12 05:09:53;;;;;;;22.15;12.57;;;;;;;;;;5054450;28;20112;-76
2022/03/12 05:12:21;;;;;;;17.40;11.38;;;;;;;;;;5054358;28;20021;-76
2022/03/12 05:14:48;;;;;;;17.75;11.88;;;;;;;;;;5054159;28;20037;-76
2022/03/12 05:17:15;;;;;;;18.40;11.88;;;;;;;;;;5054557;28;20375;-76
2022/03/12 05:19:42;;;;;;;20.63;12.10;;;;;;;;;;5054081;28;20025;-76
2022/03/12 05:22:08;;;;;;;16.40;10.98;;;;;;;;;;5054183;28;20106;-76
2022/03/12 05:24:35;;;;;;;17.52;12.48;;;;;;;;;;5053949;28;20045;-76
2022/03/12 05:27:01;;;;;;;17.92;11.73;;;;;;;;;;5054050;28;20422;-80
2022/03/12 05:29:30;;;;;;;15.00;10.65;;;;;;;;;;5054452;28;20029;-79
2022/03/12 05:31:56;;;;;;;22.08;13.27;;;;;;;;;;5054974;28;20031;-77
2022/03/12 05:34:23;;;;;;;18.48;12.15;;;;;;;;;;5054072;28;20025;-79
2022/03/12 05:36:49;;;;;;;21.30;12.70;;;;;;;;;;5054040;28;20488;-76
2022/03/12 05:39:16;;;;;;;15.75;10.85;;;;;;;;;;5053991;28;20476;-76
2022/03/12 05:41:47;;;;;;;16.42;11.43;;;;;;;;;;5053855;28;20100;-76
2022/03/12 05:44:14;;;;;;;16.27;11.20;;;;;;;;;;5053498;28;20048;-76
2022/03/12 05:46:40;;;;;;;18.05;11.05;;;;;;;;;;5053585;28;20384;-77
2022/03/12 05:49:08;;;;;;;18.25;12.32;;;;;;;;;;5053650;28;20380;-76
2022/03/12 05:51:34;;;;;;;16.33;11.23;;;;;;;;;;5053237;28;20124;-77
2022/03/12 05:54:02;;;;;;;16.95;10.70;;;;;;;;;;5053431;28;20472;-77
2022/03/12 05:56:28;;;;;;;16.00;10.13;;;;;;;;;;5053596;28;20108;-77
2022/03/12 05:58:54;;;;;;;15.10;10.48;;;;;;;;;;5055110;28;20024;-79
2022/03/12 06:01:20;;;;;;;16.77;11.30;;;;;;;;;;5053666;28;20029;-78
2022/03/12 06:03:47;;;;;;;17.02;10.80;;;;;;;;;;5053244;28;20025;-79
2022/03/12 06:06:14;;;;;;;15.38;9.50;;;;;;;;;;5053345;28;20074;-78
2022/03/12 06:08:40;;;;;;;15.80;10.63;;;;;;;;;;5053166;28;20029;-77
2022/03/12 06:11:06;;;;;;;17.35;11.27;;;;;;;;;;5053149;28;20064;-77
2022/03/12 06:13:33;;;;;;;16.70;10.73;;;;;;;;;;5053345;28;20044;-79
2022/03/12 06:16:02;;;;;;;19.20;11.48;;;;;;;;;;5051995;28;20153;-78
2022/03/12 06:18:34;;;;;;;19.05;12.27;;;;;;;;;;5053032;28;20072;-79
2022/03/12 06:21:00;;;;;;;22.75;14.38;;;;;;;;;;5053242;28;20060;-78
2022/03/12 06:23:27;;;;;;;19.40;11.75;;;;;;;;;;5055974;28;20057;-78
2022/03/12 06:25:53;;;;;;;19.30;13.38;;;;;;;;;;5052584;28;20112;-78
2022/03/12 06:28:21;;;;;;;17.23;11.82;;;;;;;;;;5053157;28;20036;-78
2022/03/12 06:30:52;;;;;;;17.60;10.18;;;;;;;;;;5053133;28;20422;-78
2022/03/12 06:33:19;;;;;;;15.50;10.23;;;;;;;;;;5053271;28;20166;-78
2022/03/12 06:35:46;;;;;;;19.42;12.57;;;;;;;;;;5052919;28;20041;-78
2022/03/12 06:38:12;;;;;;;14.10;10.65;;;;;;;;;;5053040;28;20036;-80
2022/03/12 06:40:38;;;;;;;17.45;9.63;;;;;;;;;;5052804;28;20032;-79
2022/03/12 06:43:09;;;;;;;13.32;9.75;;;;;;;;;;5053072;28;20393;-77
2022/03/12 06:45:36;;;;;;;14.48;9.77;;;;;;;;;;5056760;28;20110;-79
2022/03/12 06:48:02;;;;;;;13.02;8.70;;;;;;;;;;5055742;28;20369;-79
2022/03/12 06:50:29;;;;;;;14.73;9.77;;;;;;;;;;5056928;28;20439;-79
2022/03/12 06:52:56;;;;;;;14.32;9.30;;;;;;;;;;5056437;28;20057;-78
2022/03/12 06:55:23;;;;;;;14.90;9.00;;;;;;;;;;5056905;28;20068;-79
2022/03/12 06:57:53;;;;;;;16.15;10.90;;;;;;;;;;5056588;28;20029;-78
2022/03/12 07:00:22;;;;;;;18.00;11.80;;;;;;;;;;5056683;28;20079;-78
2022/03/12 07:02:48;;;;;;;18.38;12.63;;;;;;;;;;5056939;28;20503;-78
2022/03/12 07:05:15;;;;;;;16.88;10.77;;;;;;;;;;5056651;28;20091;-77
2022/03/12 07:07:41;;;;;;;18.05;11.98;;;;;;;;;;5056777;28;20029;-77
2022/03/12 07:10:08;;;;;;;17.52;9.88;;;;;;;;;;5056477;28;20033;-76
2022/03/12 07:12:35;;;;;;;20.73;13.75;;;;;;;;;;5056524;28;20424;-78
2022/03/12 07:15:01;;;;;;;18.52;11.95;;;;;;;;;;5056523;28;20021;-76
2022/03/12 07:17:29;;;;;;;17.35;11.63;;;;;;;;;;5056504;28;20468;-78
2022/03/12 07:19:55;;;;;;;19.92;13.52;;;;;;;;;;5056348;28;20472;-78
2022/03/12 07:22:21;;;;;;;16.00;10.65;;;;;;;;;;5056425;28;20017;-78
2022/03/12 07:24:48;;;;;;;19.90;15.35;;;;;;;;;;5056377;28;20037;-77
2022/03/12 07:27:14;;;;;;;19.38;12.77;;;;;;;;;;5056424;28;20057;-81
2022/03/12 07:29:41;;;;;;;21.73;14.18;;;;;;;;;;5056113;28;20104;-78
2022/03/12 07:32:07;;;;;;;23.00;15.30;;;;;;;;;;5056260;28;20029;-78
2022/03/12 07:34:33;;;;;;;23.70;15.40;;;;;;;;;;5056071;28;20120;-78
2022/03/12 07:36:59;;;;;;;18.77;12.23;;;;;;;;;;5056051;28;20044;-79
2022/03/12 07:39:26;;;;;;;16.55;10.93;;;;;;;;;;5056039;28;20028;-80
2022/03/12 07:41:52;;;;;;;14.95;10.32;;;;;;;;;;5056203;28;20086;-78
2022/03/12 07:44:18;;;;;;;16.23;9.75;;;;;;;;;;5055877;28;20037;-78
2022/03/12 07:46:45;;;;;;;19.75;13.77;;;;;;;;;;5056170;28;20582;-78
2022/03/12 07:49:11;;;;;;;15.98;11.15;;;;;;;;;;5055969;28;20025;-79
2022/03/12 07:51:37;;;;;;;17.17;12.30;;;;;;;;;;5055780;28;20081;-79
2022/03/12 07:54:06;;;;;;;15.77;11.38;;;;;;;;;;5055893;28;20435;-78
2022/03/12 07:56:34;;;;;;;13.30;8.20;;;;;;;;;;5053160;28;20539;-78
2022/03/12 07:59:03;;;;;;;15.50;10.00;;;;;;;;;;5055643;28;20113;-79
2022/03/12 08:01:29;;;;;;;18.13;11.88;;;;;;;;;;5055599;28;20472;-79
2022/03/12 08:03:55;;;;;;;19.60;13.80;;;;;;;;;;5055389;28;20083;-78
2022/03/12 08:06:22;;;;;;;18.33;12.30;;;;;;;;;;5054686;28;20430;-80
2022/03/12 08:08:48;;;;;;;16.50;10.90;;;;;;;;;;5055509;28;20413;-78
2022/03/12 08:11:28;;;;;;;16.65;10.25;;;;;;;;;;5055451;28;20075;-78
2022/03/12 08:14:02;;;;;;;14.27;8.93;;;;;;;;;;5055415;28;20021;-79
2022/03/12 08:16:33;;;;;;;16.33;11.23;;;;;;;;;;5055610;28;20443;-80
2022/03/12 08:19:00;;;;;;;19.50;12.98;;;;;;;;;;5055278;28;20041;-78
2022/03/12 08:21:26;;;;;;;20.20;11.77;;;;;;;;;;5055298;28;20025;-79
2022/03/12 08:23:52;;;;;;;21.35;12.30;;;;;;;;;;5054096;28;20037;-82
2022/03/12 08:26:19;;;;;;;18.63;12.02;;;;;;;;;;5055168;28;20040;-79
2022/03/12 08:28:46;;;;;;;14.63;11.05;;;;;;;;;;5055311;28;20542;-79
2022/03/12 08:31:13;;;;;;;17.30;10.93;;;;;;;;;;5055137;28;20109;-77
2022/03/12 08:33:39;;;;;;;16.20;10.93;;;;;;;;;;5055066;28;20108;-79
2022/03/12 08:36:06;;;;;;;15.43;9.45;;;;;;;;;;5054913;28;20056;-78
2022/03/12 08:38:34;;;;;;;30.20;16.58;;;;;;;;;;5055018;28;20021;-79
2022/03/12 08:41:01;;;;;;;15.23;10.13;;;;;;;;;;5054923;28;20484;-79
2022/03/12 08:43:27;;;;;;;16.77;10.85;;;;;;;;;;5054547;28;20029;-78
2022/03/12 08:45:53;;;;;;;19.52;13.65;;;;;;;;;;5054625;28;20029;-78
2022/03/12 08:48:19;;;;;;;19.88;12.63;;;;;;;;;;5054952;28;20428;-78
2022/03/12 08:50:46;;;;;;;17.27;12.68;;;;;;;;;;5054710;28;20021;-77
2022/03/12 08:53:15;;;;;;;20.42;13.05;;;;;;;;;;5054527;28;20057;-79
2022/03/12 08:55:41;;;;;;;16.17;11.05;;;;;;;;;;5054459;28;20112;-80
2022/03/12 08:58:08;;;;;;;17.33;11.48;;;;;;;;;;5054784;28;20039;-78
2022/03/12 09:00:34;;;;;;;18.10;11.43;;;;;;;;;;5054798;28;20025;-78
2022/03/12 09:03:00;;;;;;;14.00;8.73;;;;;;;;;;5054482;28;20057;-78
2022/03/12 09:05:26;;;;;;;12.35;8.95;;;;;;;;;;5054540;28;20029;-80
2022/03/12 09:07:53;;;;;;;19.45;13.57;;;;;;;;;;5053969;28;20029;-78
2022/03/12 09:10:21;;;;;;;18.95;13.95;;;;;;;;;;5054642;28;20361;-81
2022/03/12 09:12:48;;;;;;;13.75;8.57;;;;;;;;;;5054605;28;20400;-81
2022/03/12 09:15:14;;;;;;;15.32;10.27;;;;;;;;;;5054655;28;20017;-79
2022/03/12 09:17:40;;;;;;;15.23;10.15;;;;;;;;;;5053833;28;20029;-80
2022/03/12 09:20:07;;;;;;;16.20;11.18;;;;;;;;;;5054120;28;20064;-78
2022/03/12 09:22:34;;;;;;;14.70;9.02;;;;;;;;;;5053837;28;20384;-79
2022/03/12 09:25:02;;;;;;;14.00;10.20;;;;;;;;;;5052706;28;20033;-79
2022/03/12 09:27:28;;;;;;;21.60;14.77;;;;;;;;;;5053992;28;20035;-82
2022/03/12 09:29:54;;;;;;;19.77;12.82;;;;;;;;;;5054159;28;20055;-84
2022/03/12 09:32:20;;;;;;;14.73;9.82;;;;;;;;;;5054039;28;20032;-79
2022/03/12 09:34:47;;;;;;;15.88;10.50;;;;;;;;;;5053685;28;20114;-79
2022/03/12 09:37:13;;;;;;;16.85;10.10;;;;;;;;;;5053956;28;20037;-80
2022/03/12 09:39:39;;;;;;;17.42;11.23;;;;;;;;;;5053516;28;20067;-80
2022/03/12 09:42:06;;;;;;;19.90;13.25;;;;;;;;;;5052400;28;20434;-80
2022/03/12 09:44:32;;;;;;;17.08;12.13;;;;;;;;;;5054192;28;20115;-78
2022/03/12 09:46:58;;;;;;;14.20;9.52;;;;;;;;;;5053837;28;20104;-79
2022/03/12 09:49:24;;;;;;;18.27;11.80;;;;;;;;;;5053879;28;20419;-81
2022/03/12 09:51:51;;;;;;;18.35;12.20;;;;;;;;;;5053426;28;20094;-83
2022/03/12 09:54:18;;;;;;;27.23;15.15;;;;;;;;;;5053681;28;20079;-80
2022/03/12 09:56:45;;;;;;;17.75;11.60;;;;;;;;;;5053932;28;20061;-82
2022/03/12 09:59:12;;;;;;;14.32;8.55;;;;;;;;;;5053719;28;20021;-82
2022/03/12 10:01:38;;;;;;;15.18;10.35;;;;;;;;;;5053970;28;20028;-78
2022/03/12 10:04:04;;;;;;;11.93;9.40;;;;;;;;;;5052382;28;20036;-80
2022/03/12 10:06:31;;;;;;;15.30;9.93;;;;;;;;;;5053319;28;20059;-79
2022/03/12 10:08:57;;;;;;;13.25;8.80;;;;;;;;;;5053514;28;20025;-80
2022/03/12 10:11:24;;;;;;;13.98;9.90;;;;;;;;;;5052046;28;20025;-80
2022/03/12 10:13:50;;;;;;;18.17;11.43;;;;;;;;;;5053617;28;20028;-83
2022/03/12 10:16:18;;;;;;;15.93;10.73;;;;;;;;;;5053456;28;20535;-78
2022/03/12 10:18:45;;;;;;;26.58;19.88;;;;;;;;;;5052982;28;20025;-79
2022/03/12 10:21:11;;;;;;;13.80;9.18;;;;;;;;;;5053244;28;20040;-79
2022/03/12 10:23:37;;;;;;;15.48;11.40;;;;;;;;;;5053265;28;20024;-81
2022/03/12 10:26:04;;;;;;;20.45;13.23;;;;;;;;;;5053362;28;20028;-80
2022/03/12 10:28:34;;;;;;;15.27;9.73;;;;;;;;;;5052200;28;20484;-79
2022/03/12 10:31:05;;;;;;;16.63;11.13;;;;;;;;;;5056724;28;20033;-77
2022/03/12 10:33:31;;;;;;;14.43;9.63;;;;;;;;;;5051395;28;20106;-78
2022/03/12 10:36:10;;;;;;;21.75;13.30;;;;;;;;;;5053282;28;20029;-80
2022/03/12 10:38:42;;;;;;;13.63;9.55;;;;;;;;;;5053019;28;20356;-81
2022/03/12 10:41:09;;;;;;;20.67;11.95;;;;;;;;;;5051886;28;20111;-80
2022/03/12 10:43:43;;;;;;;13.38;10.13;;;;;;;;;;5053020;28;20056;-80
2022/03/12 10:46:10;;;;;;;9.30;6.05;;;;;;;;;;5048217;28;20076;-80
2022/03/12 10:48:39;;;;;;;17.10;10.20;;;;;;;;;;5033129;28;20021;-82
2022/03/12 10:51:05;;;;;;;11.20;6.97;;;;;;;;;;5033035;28;20026;-81
2022/03/12 10:53:32;;;;;;;11.52;8.25;;;;;;;;;;5033110;28;20034;-79
2022/03/12 10:55:58;;;;;;;8.70;5.95;;;;;;;;;;5032105;28;20025;-80
2022/03/12 10:58:26;;;;;;;10.05;7.20;;;;;;;;;;5032996;28;20025;-81
2022/03/12 11:00:53;;;;;;;11.48;7.70;;;;;;;;;;5032820;28;20108;-80
2022/03/12 11:03:23;;;;;;;34.65;15.95;;;;;;;;;;5032799;28;20084;-79
2022/03/12 11:05:51;;;;;;;9.00;6.50;;;;;;;;;;5032971;28;20033;-82
2022/03/12 11:08:18;;;;;;;20.65;12.52;;;;;;;;;;5033162;28;20485;-80
2022/03/12 11:10:50;;;;;;;15.25;10.63;;;;;;;;;;5032878;28;20048;-80
2022/03/12 11:13:28;;;;;;;11.80;7.68;;;;;;;;;;5032875;28;20038;-80
2022/03/12 11:16:07;;;;;;;8.57;5.80;;;;;;;;;;5031863;28;20057;-79
2022/03/12 11:18:33;;;;;;;12.48;8.35;;;;;;;;;;5032842;28;20033;-81
2022/03/12 11:21:00;;;;;;;13.25;9.43;;;;;;;;;;5033367;28;20034;-81
2022/03/12 11:23:29;;;;;;;8.93;6.20;;;;;;;;;;5032753;28;20401;-79
2022/03/12 11:25:58;;;;;;;7.57;4.97;;;;;;;;;;5032972;28;20032;-79
2022/03/12 11:28:24;;;;;;;12.30;7.53;;;;;;;;;;5032726;28;20491;-79
2022/03/12 11:30:51;;;;;;;9.65;5.95;;;;;;;;;;5034948;28;20033;-80
2022/03/12 11:33:18;;;;;;;12.98;8.07;;;;;;;;;;5036510;28;20025;-80
2022/03/12 11:35:45;;;;;;;8.25;5.70;;;;;;;;;;5036445;28;20022;-82
2022/03/12 11:38:12;;;;;;;7.97;5.30;;;;;;;;;;5036256;28;20026;-80
2022/03/12 11:40:44;;;;;;;9.90;6.88;;;;;;;;;;5036152;28;20224;-80
2022/03/12 11:43:21;;;;;;;9.55;6.20;;;;;;;;;;5036375;28;20021;-79
2022/03/12 11:45:48;;;;;;;14.38;8.82;;;;;;;;;;5038420;28;20034;-79
2022/03/12 11:48:14;;;;;;;8.77;6.32;;;;;;;;;;5036270;28;20056;-79
2022/03/12 11:50:40;;;;;;;14.15;9.20;;;;;;;;;;5035885;28;20025;-80
2022/03/12 11:53:08;;;;;;;10.25;7.47;;;;;;;;;;5034589;28;20064;-79
2022/03/12 11:55:34;;;;;;;11.95;7.72;;;;;;;;;;5035892;28;20131;-78
2022/03/12 11:58:00;;;;;;;12.68;8.55;;;;;;;;;;5035942;28;20029;-79
2022/03/12 12:03:16;;;;;;;9.27;6.75;;;;;;;;;;5035654;28;20507;-78
2022/03/12 12:05:44;;;;;;;9.65;6.10;;;;;;;;;;5035760;28;20562;-83
2022/03/12 12:08:14;;;;;;;8.15;5.53;;;;;;;;;;5034447;28;20025;-76
2022/03/12 12:10:42;;;;;;;7.35;4.85;;;;;;;;;;5035680;28;20029;-79
2022/03/12 12:13:09;;;;;;;7.38;5.03;;;;;;;;;;5035616;28;20473;-79
2022/03/12 12:15:36;;;;;;;8.93;5.72;;;;;;;;;;5035422;28;20607;-79
2022/03/12 12:18:03;;;;;;;17.35;11.23;;;;;;;;;;5035833;28;20026;-79
2022/03/12 12:20:30;;;;;;;12.32;8.35;;;;;;;;;;5035475;28;20033;-80
2022/03/12 12:22:58;;;;;;;10.48;7.35;;;;;;;;;;5035632;28;20112;-80
2022/03/12 12:25:25;;;;;;;10.32;5.63;;;;;;;;;;5035456;28;20041;-79
2022/03/12 12:27:53;;;;;;;8.00;5.55;;;;;;;;;;5034162;28;20087;-78
2022/03/12 12:30:25;;;;;;;10.98;7.55;;;;;;;;;;5033950;28;20091;-78
2022/03/12 12:32:52;;;;;;;14.48;9.82;;;;;;;;;;5035343;28;20075;-79
2022/03/12 12:35:19;;;;;;;11.30;7.22;;;;;;;;;;5035130;28;20039;-78
2022/03/12 12:37:50;;;;;;;7.05;4.25;;;;;;;;;;5035196;28;20075;-79
2022/03/12 12:40:22;;;;;;;7.20;5.10;;;;;;;;;;5035109;28;20033;-77
2022/03/12 12:42:49;;;;;;;6.32;4.30;;;;;;;;;;5034574;28;20384;-78
2022/03/12 12:45:23;;;;;;;6.32;4.40;;;;;;;;;;5035182;28;20044;-80
2022/03/12 12:48:09;;;;;;;16.42;10.52;;;;;;;;;;5035252;28;20072;-79
2022/03/12 12:50:35;;;;;;;16.67;9.32;;;;;;;;;;5033995;28;20472;-78
2022/03/12 12:53:07;;;;;;;10.00;6.53;;;;;;;;;;5034576;28;20053;-80
2022/03/12 12:55:34;;;;;;;13.82;8.48;;;;;;;;;;5034633;28;20030;-80
2022/03/12 12:58:00;;;;;;;17.52;10.18;;;;;;;;;;5034505;28;20033;-79
2022/03/12 13:00:30;;;;;;;8.60;6.03;;;;;;;;;;5034937;28;20113;-77
2022/03/12 13:02:58;;;;;;;7.22;5.00;;;;;;;;;;5033636;28;20033;-80
2022/03/12 13:05:44;;;;;;;12.20;7.45;;;;;;;;;;5034895;28;20042;-86
2022/03/12 13:08:14;;;;;;;9.02;5.90;;;;;;;;;;5034681;28;20496;-81
2022/03/12 13:10:41;;;;;;;15.25;11.73;;;;;;;;;;5035331;28;20111;-80
2022/03/12 13:13:09;;;;;;;8.50;5.88;;;;;;;;;;5033627;28;20551;-79
2022/03/12 13:15:39;;;;;;;9.70;6.22;;;;;;;;;;5034512;28;20465;-84
2022/03/12 13:18:26;;;;;;;7.45;4.47;;;;;;;;;;5033935;28;20021;-79
2022/03/12 13:20:55;;;;;;;6.28;4.70;;;;;;;;;;5034028;28;20112;-78
2022/03/12 13:23:32;;;;;;;14.30;8.45;;;;;;;;;;5034267;28;20028;-78
2022/03/12 13:25:59;;;;;;;9.40;6.68;;;;;;;;;;5034224;28;20027;-82
2022/03/12 13:28:35;;;;;;;12.68;9.02;;;;;;;;;;5034065;28;20084;-79
2022/03/12 13:31:22;;;;;;;12.88;7.53;;;;;;;;;;5032940;28;20035;-79
2022/03/12 13:33:56;;;;;;;11.32;7.35;;;;;;;;;;5033959;28;20515;-81
2022/03/12 13:36:23;;;;;;;8.97;6.67;;;;;;;;;;5032764;28;20512;-78
2022/03/12 13:38:51;;;;;;;10.25;6.90;;;;;;;;;;5034231;28;20029;-78
2022/03/12 13:41:18;;;;;;;7.05;5.50;;;;;;;;;;5034074;28;20031;-78
2022/03/12 13:43:45;;;;;;;8.73;5.35;;;;;;;;;;5033793;28;20381;-78
2022/03/12 13:46:12;;;;;;;5.97;4.45;;;;;;;;;;5033762;28;20034;-78
2022/03/12 13:48:38;;;;;;;5.15;4.55;;;;;;;;;;5034043;28;20078;-77
2022/03/12 13:51:05;;;;;;;6.18;4.88;;;;;;;;;;5032180;28;20087;-77
2022/03/12 13:53:36;;;;;;;9.68;7.40;;;;;;;;;;5033660;28;20029;-82
2022/03/12 13:56:04;;;;;;;11.23;7.47;;;;;;;;;;5032376;28;20103;-78
2022/03/12 13:58:31;;;;;;;7.90;5.35;;;;;;;;;;5034571;28;20038;-79
2022/03/12 14:01:00;;;;;;;7.78;5.47;;;;;;;;;;5033928;28;20036;-80
2022/03/12 14:03:31;;;;;;;6.88;4.82;;;;;;;;;;5032121;28;20388;-79
2022/03/12 14:05:57;;;;;;;7.65;4.68;;;;;;;;;;5033339;28;20473;-80
2022/03/12 14:08:24;;;;;;;10.63;6.32;;;;;;;;;;5033467;28;20033;-80
2022/03/12 14:10:52;;;;;;;10.52;7.00;;;;;;;;;;5033351;28;20029;-78
2022/03/12 14:13:20;;;;;;;16.33;10.90;;;;;;;;;;5033494;28;20021;-79
2022/03/12 14:15:47;;;;;;;15.07;10.73;;;;;;;;;;5033421;28;20461;-78
2022/03/12 14:18:23;;;;;;;9.38;5.35;;;;;;;;;;5033398;28;20036;-80
2022/03/12 14:20:49;;;;;;;9.00;7.05;;;;;;;;;;5033354;28;20064;-78
2022/03/12 14:23:18;;;;;;;7.47;5.18;;;;;;;;;;5032203;28;20021;-77
2022/03/12 14:25:44;;;;;;;6.07;4.55;;;;;;;;;;5033415;28;20040;-78
2022/03/12 14:28:11;;;;;;;5.93;4.63;;;;;;;;;;5033309;28;20036;-80